Time;durP1;ratioP1;P1;durP2;ratioP2;P2;SDS_P1;SDS_P2;PMS_P1;PMS_P2;Temp;Humidity;BMP_temperature;BMP_pressure;BME280_temperature;BME280_humidity;BME280_pressure;Samples;Min_cycle;Max_cycle;Signal;HPM_P1;HPM_P2
2022/05/15 00:02:32;;;;;;;28.77;26.83;;;14.20;74.70;;;;;;5141926;27;20613;-73
2022/05/15 00:04:59;;;;;;;28.70;26.90;;;14.10;75.10;;;;;;5145513;27;20470;-73
2022/05/15 00:07:26;;;;;;;29.20;27.30;;;14.10;75.40;;;;;;5138371;27;20559;-75
2022/05/15 00:09:53;;;;;;;29.10;27.40;;;14.10;74.90;;;;;;5140036;27;20458;-73
2022/05/15 00:12:22;;;;;;;29.23;27.43;;;14.10;74.80;;;;;;5139359;27;20458;-72
2022/05/15 00:14:49;;;;;;;28.80;27.00;;;14.00;74.90;;;;;;5131346;27;20993;-73
2022/05/15 00:17:17;;;;;;;28.30;26.60;;;13.90;75.30;;;;;;5143663;27;20463;-73
2022/05/15 00:19:44;;;;;;;27.87;26.37;;;13.90;75.50;;;;;;5140107;27;20535;-73
2022/05/15 00:22:11;;;;;;;28.00;26.30;;;13.90;75.10;;;;;;5142089;27;21031;-72
2022/05/15 00:24:39;;;;;;;28.40;26.80;;;14.00;75.00;;;;;;5132839;27;20498;-72
2022/05/15 00:27:06;;;;;;;27.93;26.30;;;14.00;75.10;;;;;;5147034;27;20546;-71
2022/05/15 00:29:34;;;;;;;27.57;26.00;;;13.90;75.10;;;;;;5144639;27;20454;-72
2022/05/15 00:32:01;;;;;;;27.30;25.70;;;13.90;75.40;;;;;;5138751;27;20945;-74
2022/05/15 00:34:28;;;;;;;27.73;26.13;;;13.80;75.60;;;;;;5140248;27;20475;-72
2022/05/15 00:36:55;;;;;;;27.80;26.10;;;13.90;75.40;;;;;;5144222;27;20462;-73
2022/05/15 00:39:22;;;;;;;28.70;26.90;;;13.80;75.70;;;;;;5145467;27;20896;-72
2022/05/15 00:41:49;;;;;;;27.80;26.40;;;13.70;76.00;;;;;;5134383;27;20467;-73
2022/05/15 00:44:16;;;;;;;28.27;26.57;;;13.60;76.10;;;;;;5146926;27;20475;-73
2022/05/15 00:46:44;;;;;;;28.57;26.97;;;13.60;76.40;;;;;;5142089;27;20508;-73
2022/05/15 00:49:13;;;;;;;28.17;26.47;;;13.60;76.80;;;;;;5145153;27;20786;-72
2022/05/15 00:51:43;;;;;;;29.30;27.23;;;13.50;77.20;;;;;;5130209;27;20825;-72
2022/05/15 00:54:16;;;;;;;27.53;25.83;;;13.50;77.20;;;;;;5137298;27;20840;-73
2022/05/15 00:56:49;;;;;;;28.00;26.30;;;13.50;77.20;;;;;;5142794;27;20447;-73
2022/05/15 00:59:20;;;;;;;27.37;25.87;;;13.50;77.00;;;;;;5141490;27;20550;-72
2022/05/15 01:01:49;;;;;;;28.00;26.40;;;13.50;77.20;;;;;;5127934;27;20468;-72
2022/05/15 01:04:16;;;;;;;27.83;26.23;;;13.40;77.20;;;;;;5133096;27;20574;-72
2022/05/15 01:06:43;;;;;;;27.43;25.73;;;13.40;77.10;;;;;;5145953;27;20857;-72
2022/05/15 01:09:12;;;;;;;28.30;26.43;;;13.40;77.00;;;;;;5141926;27;20463;-72
2022/05/15 01:11:41;;;;;;;28.60;26.87;;;13.40;77.20;;;;;;5145254;27;20952;-73
2022/05/15 01:14:12;;;;;;;29.27;27.00;;;13.40;77.40;;;;;;5140571;27;20479;-72
2022/05/15 01:16:39;;;;;;;27.90;26.30;;;13.30;77.90;;;;;;5141144;27;20462;-74
2022/05/15 01:19:07;;;;;;;29.43;27.63;;;13.20;78.00;;;;;;5131698;27;20448;-72
2022/05/15 01:21:38;;;;;;;28.53;26.70;;;13.20;78.40;;;;;;5137271;27;20451;-72
2022/05/15 01:24:08;;;;;;;29.30;27.50;;;13.20;78.50;;;;;;5142901;27;20488;-72
2022/05/15 01:26:37;;;;;;;27.70;26.20;;;13.10;78.20;;;;;;5143407;27;20451;-72
2022/05/15 01:29:06;;;;;;;27.80;26.20;;;13.20;78.00;;;;;;5148427;27;20451;-74
2022/05/15 01:31:33;;;;;;;29.47;27.43;;;13.20;77.50;;;;;;5135130;27;20452;-72
2022/05/15 01:34:01;;;;;;;28.13;26.33;;;13.20;77.20;;;;;;5141855;27;20474;-72
2022/05/15 01:36:28;;;;;;;28.37;26.80;;;13.20;77.00;;;;;;5138834;27;20539;-71
2022/05/15 01:38:56;;;;;;;28.77;27.03;;;13.20;77.10;;;;;;5145868;27;20458;-70
2022/05/15 01:41:25;;;;;;;28.10;26.57;;;13.20;76.90;;;;;;5137507;27;20450;-71
2022/05/15 01:43:53;;;;;;;28.00;26.40;;;13.20;76.40;;;;;;5143015;27;20474;-71
2022/05/15 01:46:22;;;;;;;27.97;26.40;;;13.20;76.30;;;;;;5145182;27;20475;-72
2022/05/15 01:48:49;;;;;;;27.97;26.37;;;13.20;76.20;;;;;;5142104;27;20454;-72
2022/05/15 01:51:16;;;;;;;27.60;26.10;;;13.20;76.00;;;;;;5145196;27;20478;-71
2022/05/15 01:53:43;;;;;;;27.93;26.30;;;13.20;75.90;;;;;;5141501;27;20984;-72
2022/05/15 01:56:12;;;;;;;27.57;26.00;;;13.20;76.00;;;;;;5137734;27;20456;-72
2022/05/15 01:58:39;;;;;;;28.93;27.03;;;13.20;76.10;;;;;;5139826;27;20450;-71
2022/05/15 02:01:07;;;;;;;27.80;26.30;;;13.30;76.30;;;;;;5145570;27;20967;-72
2022/05/15 02:03:35;;;;;;;28.80;27.07;;;13.30;76.50;;;;;;5144670;27;20486;-72
2022/05/15 02:06:02;;;;;;;27.80;26.20;;;13.20;76.60;;;;;;5132852;27;20717;-72
2022/05/15 02:08:31;;;;;;;27.80;26.30;;;13.20;76.70;;;;;;5137457;27;20504;-72
2022/05/15 02:10:57;;;;;;;27.40;25.80;;;13.20;76.60;;;;;;5138633;27;21004;-71
2022/05/15 02:13:26;;;;;;;28.30;26.40;;;13.20;76.60;;;;;;5133769;27;20454;-71
2022/05/15 02:15:53;;;;;;;27.23;25.83;;;13.10;76.90;;;;;;5131287;27;20516;-71
2022/05/15 02:18:20;;;;;;;27.80;26.10;;;13.20;76.90;;;;;;5140145;27;20973;-71
2022/05/15 02:20:47;;;;;;;27.37;25.87;;;13.20;76.90;;;;;;5146432;27;20994;-72
2022/05/15 02:23:13;;;;;;;29.20;27.20;;;13.10;77.30;;;;;;5136658;27;20466;-71
2022/05/15 02:25:40;;;;;;;28.30;26.70;;;13.00;77.70;;;;;;5141997;27;20569;-71
2022/05/15 02:28:08;;;;;;;27.80;26.17;;;12.80;78.30;;;;;;5153386;27;20804;-71
2022/05/15 02:30:37;;;;;;;27.50;25.80;;;12.80;78.60;;;;;;5144085;27;21029;-71
2022/05/15 02:33:04;;;;;;;28.03;26.37;;;12.90;78.50;;;;;;5141353;27;20454;-72
2022/05/15 02:35:31;;;;;;;27.73;26.13;;;12.80;78.70;;;;;;5150169;27;20832;-71
2022/05/15 02:37:58;;;;;;;27.70;26.00;;;12.80;78.80;;;;;;5141393;27;20452;-73
2022/05/15 02:40:26;;;;;;;27.97;26.27;;;12.80;78.80;;;;;;5142518;27;20455;-74
2022/05/15 02:42:55;;;;;;;28.27;26.70;;;12.70;79.10;;;;;;5147492;27;20479;-74
2022/05/15 02:45:22;;;;;;;29.03;27.20;;;12.80;79.10;;;;;;5144125;27;20483;-72
2022/05/15 02:47:51;;;;;;;28.00;26.47;;;12.70;79.20;;;;;;5147274;27;20881;-72
2022/05/15 02:53:03;;;;;;;28.40;26.40;;;12.70;79.50;;;;;;5131155;27;20534;-73
2022/05/15 02:55:30;;;;;;;27.53;25.77;;;12.70;79.30;;;;;;5145711;27;20477;-72
2022/05/15 02:57:57;;;;;;;27.90;25.93;;;12.70;79.40;;;;;;5135373;27;20456;-73
2022/05/15 03:00:26;;;;;;;27.10;25.50;;;12.60;79.60;;;;;;5131643;27;20455;-72
2022/05/15 03:02:55;;;;;;;28.20;26.60;;;12.70;79.50;;;;;;5143886;27;20462;-73
2022/05/15 03:05:22;;;;;;;28.80;26.90;;;12.70;79.40;;;;;;5148486;27;20829;-73
2022/05/15 03:07:50;;;;;;;26.87;25.37;;;12.70;79.50;;;;;;5139836;27;20455;-72
2022/05/15 03:10:19;;;;;;;26.73;25.23;;;12.60;79.60;;;;;;5148564;27;20695;-75
2022/05/15 03:12:46;;;;;;;27.33;25.73;;;12.40;80.30;;;;;;5138594;27;20444;-74
2022/05/15 03:15:15;;;;;;;26.83;25.33;;;12.30;80.80;;;;;;5140255;27;20468;-72
2022/05/15 03:17:42;;;;;;;26.60;25.20;;;12.40;80.80;;;;;;5139848;27;20543;-72
2022/05/15 03:20:14;;;;;;;26.40;25.00;;;12.30;80.80;;;;;;5143942;27;20469;-73
2022/05/15 03:22:41;;;;;;;26.77;25.10;;;12.30;81.00;;;;;;5137174;27;20492;-74
2022/05/15 03:25:09;;;;;;;26.97;25.37;;;12.30;81.00;;;;;;5143839;27;22558;-72
2022/05/15 03:27:37;;;;;;;26.80;25.27;;;12.30;81.10;;;;;;5131885;27;21090;-72
2022/05/15 03:30:06;;;;;;;27.60;25.80;;;12.30;81.10;;;;;;5140654;27;20447;-72
2022/05/15 03:32:33;;;;;;;26.57;25.17;;;12.20;81.20;;;;;;5150166;27;20542;-73
2022/05/15 03:35:00;;;;;;;26.97;25.27;;;12.20;81.40;;;;;;5141325;27;20475;-72
2022/05/15 03:37:28;;;;;;;26.87;25.33;;;12.30;81.00;;;;;;5148540;27;20940;-72
2022/05/15 03:39:56;;;;;;;28.03;26.40;;;12.20;81.10;;;;;;5133092;27;20507;-73
2022/05/15 03:42:24;;;;;;;28.60;27.00;;;12.20;81.00;;;;;;5149196;27;20455;-71
2022/05/15 03:44:52;;;;;;;28.10;26.20;;;12.20;81.00;;;;;;5140752;27;20561;-71
2022/05/15 03:47:19;;;;;;;28.07;26.37;;;12.00;81.60;;;;;;5136173;27;20458;-71
2022/05/15 03:49:47;;;;;;;27.43;25.63;;;12.00;81.80;;;;;;5139791;27;20480;-71
2022/05/15 03:52:14;;;;;;;25.80;24.37;;;12.10;81.50;;;;;;5143334;27;20499;-71
2022/05/15 03:54:42;;;;;;;26.40;24.80;;;12.10;81.60;;;;;;5143350;27;20470;-71
2022/05/15 03:57:09;;;;;;;27.63;25.50;;;12.10;81.70;;;;;;5144867;27;20824;-71
2022/05/15 03:59:39;;;;;;;27.50;25.90;;;12.10;81.80;;;;;;5134368;27;20459;-71
2022/05/15 04:02:07;;;;;;;27.67;26.10;;;12.10;81.70;;;;;;5145246;27;20455;-73
2022/05/15 04:04:35;;;;;;;26.57;24.93;;;12.10;81.80;;;;;;5135246;27;20483;-72
2022/05/15 04:07:03;;;;;;;26.50;25.00;;;12.20;81.50;;;;;;5131533;27;20956;-72
2022/05/15 04:09:32;;;;;;;26.00;24.50;;;12.30;81.60;;;;;;5136581;27;20458;-72
2022/05/15 04:12:00;;;;;;;27.60;25.80;;;12.30;81.50;;;;;;5146884;27;20459;-73
2022/05/15 04:14:27;;;;;;;27.60;25.80;;;12.30;81.20;;;;;;5137283;27;20544;-72
2022/05/15 04:16:54;;;;;;;26.70;25.20;;;12.30;81.20;;;;;;5140843;27;20450;-72
2022/05/15 04:19:22;;;;;;;27.03;25.43;;;12.30;80.80;;;;;;5140602;27;20443;-72
2022/05/15 04:21:48;;;;;;;26.77;25.20;;;12.30;80.80;;;;;;5130706;27;20456;-72
2022/05/15 04:24:17;;;;;;;25.80;24.20;;;12.40;80.70;;;;;;5140437;27;20856;-72
2022/05/15 04:26:46;;;;;;;27.50;25.83;;;12.50;80.50;;;;;;5142356;27;20532;-72
2022/05/15 04:29:15;;;;;;;25.60;24.30;;;12.60;80.50;;;;;;5141203;27;20455;-70
2022/05/15 04:31:41;;;;;;;27.63;26.10;;;12.60;80.20;;;;;;5131932;27;20454;-71
2022/05/15 04:34:08;;;;;;;27.10;25.50;;;12.60;80.00;;;;;;5146493;27;20463;-69
2022/05/15 04:36:36;;;;;;;27.27;25.60;;;12.50;80.00;;;;;;5134028;27;20467;-71
2022/05/15 04:39:03;;;;;;;26.97;25.47;;;12.60;79.80;;;;;;5144891;27;20454;-70
2022/05/15 04:41:30;;;;;;;28.37;26.50;;;12.60;80.00;;;;;;5144184;27;20463;-71
2022/05/15 04:43:58;;;;;;;28.63;26.90;;;12.60;80.40;;;;;;5137310;27;20829;-71
2022/05/15 04:46:29;;;;;;;27.10;25.53;;;12.80;79.50;;;;;;5130894;27;20452;-71
2022/05/15 04:48:56;;;;;;;27.80;26.13;;;12.90;79.10;;;;;;5143766;27;20474;-71
2022/05/15 04:51:23;;;;;;;26.37;24.97;;;13.00;78.50;;;;;;5134378;27;20458;-70
2022/05/15 04:53:50;;;;;;;27.53;25.60;;;13.10;78.60;;;;;;5129932;27;20448;-70
2022/05/15 04:56:17;;;;;;;27.50;26.00;;;13.20;78.20;;;;;;5132334;27;20470;-71
2022/05/15 04:58:44;;;;;;;26.40;25.00;;;13.40;78.00;;;;;;5149586;27;20451;-71
2022/05/15 05:01:10;;;;;;;27.33;25.80;;;13.40;77.60;;;;;;5133912;27;20454;-70
2022/05/15 05:03:39;;;;;;;26.47;24.77;;;13.50;77.50;;;;;;5133061;27;20475;-71
2022/05/15 05:06:06;;;;;;;27.57;25.87;;;13.60;77.40;;;;;;5130046;27;20467;-71
2022/05/15 05:08:33;;;;;;;27.53;25.83;;;13.80;77.00;;;;;;5145283;27;20456;-71
2022/05/15 05:11:00;;;;;;;28.00;26.10;;;13.80;76.40;;;;;;5134273;27;20451;-71
2022/05/15 05:13:27;;;;;;;27.63;26.10;;;13.90;75.80;;;;;;5143817;27;20450;-70
2022/05/15 05:15:54;;;;;;;27.17;25.57;;;14.00;75.50;;;;;;5139054;27;20475;-70
2022/05/15 05:18:21;;;;;;;26.87;25.37;;;13.90;75.80;;;;;;5145198;27;20537;-70
2022/05/15 05:20:49;;;;;;;27.50;25.77;;;13.90;75.90;;;;;;5135353;27;20839;-71
2022/05/15 05:23:16;;;;;;;27.30;25.80;;;13.90;76.00;;;;;;5138682;27;20459;-71
2022/05/15 05:25:43;;;;;;;27.30;25.70;;;13.90;76.10;;;;;;5136695;27;20561;-70
2022/05/15 05:28:10;;;;;;;26.50;24.93;;;14.10;75.70;;;;;;5144893;27;20497;-72
2022/05/15 05:30:38;;;;;;;26.20;24.80;;;14.20;75.20;;;;;;5136316;27;20455;-71
2022/05/15 05:33:06;;;;;;;26.97;25.40;;;14.40;74.60;;;;;;5137421;27;20542;-71
2022/05/15 05:35:34;;;;;;;27.60;26.00;;;14.50;73.70;;;;;;5140834;27;20853;-72
2022/05/15 05:38:03;;;;;;;27.47;25.87;;;14.50;73.70;;;;;;5141334;27;20578;-73
2022/05/15 05:40:30;;;;;;;28.97;27.27;;;14.70;73.40;;;;;;5140004;27;20462;-74
2022/05/15 05:42:57;;;;;;;26.87;25.40;;;14.80;73.00;;;;;;5129100;27;20456;-71
2022/05/15 05:45:24;;;;;;;26.20;24.70;;;15.00;72.10;;;;;;5137295;27;20486;-71
2022/05/15 05:47:55;;;;;;;26.67;25.07;;;15.10;71.60;;;;;;5148123;27;20459;-70
2022/05/15 05:50:26;;;;;;;26.60;25.10;;;15.20;71.40;;;;;;5137884;27;20455;-71
2022/05/15 05:52:54;;;;;;;26.80;25.10;;;15.40;70.70;;;;;;5139536;27;20490;-71
2022/05/15 05:55:23;;;;;;;26.40;24.80;;;15.50;69.90;;;;;;5143957;27;20464;-71
2022/05/15 05:57:50;;;;;;;26.03;24.33;;;15.70;68.90;;;;;;5145012;27;20469;-71
2022/05/15 06:00:20;;;;;;;28.20;26.10;;;15.80;68.30;;;;;;5135838;27;20474;-70
2022/05/15 06:02:47;;;;;;;27.70;26.20;;;15.90;67.90;;;;;;5128849;27;20545;-71
2022/05/15 06:05:13;;;;;;;28.20;26.17;;;16.10;67.30;;;;;;5142293;27;20471;-72
2022/05/15 06:07:40;;;;;;;27.50;25.90;;;16.20;67.00;;;;;;5136510;27;21009;-71
2022/05/15 06:10:11;;;;;;;27.13;25.63;;;16.40;66.80;;;;;;5135656;27;20539;-73
2022/05/15 06:12:40;;;;;;;27.43;25.90;;;16.40;66.30;;;;;;5142131;27;20920;-72
2022/05/15 06:15:09;;;;;;;28.10;26.40;;;16.60;65.60;;;;;;5144171;27;20526;-72
2022/05/15 06:17:40;;;;;;;28.23;26.47;;;16.70;65.50;;;;;;5131971;27;20447;-73
2022/05/15 06:20:10;;;;;;;28.73;27.03;;;16.80;65.30;;;;;;5144087;27;20451;-71
2022/05/15 06:22:37;;;;;;;26.70;25.20;;;16.90;64.60;;;;;;5142200;27;20555;-71
2022/05/15 06:25:05;;;;;;;27.00;25.50;;;17.10;64.50;;;;;;5130609;27;20487;-72
2022/05/15 06:27:32;;;;;;;27.27;25.63;;;17.10;64.00;;;;;;5138669;27;20465;-73
2022/05/15 06:30:01;;;;;;;27.43;25.67;;;17.30;63.70;;;;;;5134903;27;20582;-74
2022/05/15 06:32:28;;;;;;;28.47;26.77;;;17.30;63.70;;;;;;5133669;27;20474;-72
2022/05/15 06:34:55;;;;;;;27.17;25.67;;;17.40;63.10;;;;;;5140742;27;20514;-71
2022/05/15 06:37:22;;;;;;;27.53;25.87;;;17.50;62.80;;;;;;5137689;27;20461;-73
2022/05/15 06:39:49;;;;;;;27.40;25.80;;;17.70;62.10;;;;;;5137336;27;20455;-72
2022/05/15 06:42:16;;;;;;;26.30;24.70;;;17.70;61.90;;;;;;5139690;27;21262;-72
2022/05/15 06:44:43;;;;;;;27.67;25.80;;;17.70;62.60;;;;;;5138605;27;20839;-75
2022/05/15 06:47:12;;;;;;;29.93;27.80;;;17.80;63.40;;;;;;5133467;27;20451;-72
2022/05/15 06:49:39;;;;;;;28.63;26.90;;;17.80;63.50;;;;;;5138078;27;20473;-76
2022/05/15 06:52:06;;;;;;;29.10;27.23;;;18.00;63.50;;;;;;5133093;27;20466;-73
2022/05/15 06:54:33;;;;;;;29.53;27.43;;;18.00;63.40;;;;;;5139118;27;20820;-73
2022/05/15 06:59:45;;;;;;;29.50;27.73;;;18.20;63.20;;;;;;5141787;27;20850;-72
2022/05/15 07:02:13;;;;;;;29.17;27.40;;;18.20;63.50;;;;;;5138789;27;20948;-73
2022/05/15 07:04:40;;;;;;;27.90;26.07;;;18.40;63.30;;;;;;5140389;27;20483;-71
2022/05/15 07:07:07;;;;;;;29.10;27.40;;;18.40;63.70;;;;;;5144699;27;20447;-75
2022/05/15 07:09:34;;;;;;;29.17;27.30;;;18.40;63.80;;;;;;5142948;27;20464;-77
2022/05/15 07:12:02;;;;;;;30.00;28.10;;;18.50;63.80;;;;;;5134378;27;20550;-74
2022/05/15 07:14:30;;;;;;;28.30;26.60;;;18.60;63.60;;;;;;5139662;27;20549;-73
2022/05/15 07:16:56;;;;;;;28.27;26.27;;;18.60;63.30;;;;;;5131551;27;20451;-73
2022/05/15 07:19:25;;;;;;;28.80;26.60;;;18.70;63.00;;;;;;5139675;27;20923;-74
2022/05/15 07:21:52;;;;;;;28.50;26.73;;;18.80;62.80;;;;;;5137000;27;20895;-74
2022/05/15 07:24:19;;;;;;;28.63;26.73;;;18.70;62.80;;;;;;5131167;27;20490;-74
2022/05/15 07:26:46;;;;;;;29.20;27.40;;;18.80;62.80;;;;;;5129587;27;20456;-74
2022/05/15 07:29:14;;;;;;;28.37;26.47;;;18.80;62.80;;;;;;5135471;27;20458;-75
2022/05/15 07:31:41;;;;;;;28.23;26.63;;;18.80;62.70;;;;;;5137544;27;20486;-75
2022/05/15 07:34:08;;;;;;;30.07;27.73;;;18.90;62.60;;;;;;5145979;27;20546;-70
2022/05/15 07:36:38;;;;;;;28.27;26.57;;;19.00;62.60;;;;;;5143546;27;20463;-71
2022/05/15 07:39:05;;;;;;;28.83;26.93;;;19.30;61.80;;;;;;5134963;27;20535;-71
2022/05/15 07:41:33;;;;;;;28.87;27.17;;;19.30;61.60;;;;;;5135749;27;20494;-71
2022/05/15 07:43:59;;;;;;;28.93;27.00;;;19.40;61.60;;;;;;5141911;27;20481;-71
2022/05/15 07:46:26;;;;;;;29.47;27.47;;;19.60;61.30;;;;;;5142129;27;20540;-71
2022/05/15 07:48:55;;;;;;;28.90;26.80;;;19.70;61.10;;;;;;5149643;27;20453;-71
2022/05/15 07:51:22;;;;;;;27.23;25.63;;;20.00;60.50;;;;;;5135348;27;20471;-71
2022/05/15 07:53:50;;;;;;;27.20;25.60;;;20.20;59.20;;;;;;5141279;27;20462;-71
2022/05/15 07:56:17;;;;;;;28.87;27.17;;;20.20;59.30;;;;;;5134384;27;20972;-71
2022/05/15 07:58:44;;;;;;;29.17;27.07;;;20.20;59.30;;;;;;5135811;27;20455;-71
2022/05/15 08:01:11;;;;;;;29.03;26.90;;;20.40;58.80;;;;;;5136110;27;20554;-71
2022/05/15 08:03:43;;;;;;;27.70;25.70;;;20.50;58.50;;;;;;5146881;27;21034;-71
2022/05/15 08:08:57;;;;;;;27.60;25.97;;;20.50;58.20;;;;;;5138326;27;20464;-72
2022/05/15 08:11:28;;;;;;;27.80;26.17;;;20.70;57.30;;;;;;5139516;27;20452;-71
2022/05/15 08:13:55;;;;;;;28.10;26.50;;;20.70;57.40;;;;;;5145018;27;20543;-72
2022/05/15 08:16:22;;;;;;;27.50;25.90;;;20.60;57.40;;;;;;5146385;27;20459;-72
2022/05/15 08:24:20;;;;;;;26.00;24.60;;;21.00;56.10;;;;;;5129499;27;20471;-72
2022/05/15 08:26:47;;;;;;;26.40;24.40;;;20.90;55.90;;;;;;5139312;27;20455;-71
2022/05/15 08:29:14;;;;;;;27.90;26.20;;;20.80;56.40;;;;;;5141277;27;20837;-71
2022/05/15 08:31:41;;;;;;;26.63;24.93;;;20.80;56.50;;;;;;5144298;27;20442;-72
2022/05/15 08:34:09;;;;;;;26.73;25.00;;;21.00;56.40;;;;;;5136332;27;20467;-72
2022/05/15 08:36:36;;;;;;;28.80;27.10;;;21.20;56.00;;;;;;5145274;27;21754;-72
2022/05/15 08:39:04;;;;;;;26.03;24.43;;;21.40;55.30;;;;;;5142409;27;21026;-71
2022/05/15 08:41:43;;;;;;;26.97;25.37;;;21.60;54.80;;;;;;5134376;27;20452;-72
2022/05/15 08:44:12;;;;;;;27.60;25.60;;;21.50;55.00;;;;;;5140472;27;20856;-72
2022/05/15 08:46:50;;;;;;;27.13;25.20;;;21.50;55.10;;;;;;5145146;27;20447;-72
2022/05/15 08:49:22;;;;;;;27.13;25.23;;;21.70;54.90;;;;;;5141204;27;20968;-73
2022/05/15 08:51:57;;;;;;;27.03;25.17;;;21.70;54.80;;;;;;5134019;27;20470;-71
2022/05/15 08:54:24;;;;;;;26.53;25.03;;;21.80;54.70;;;;;;5140259;27;20470;-72
2022/05/15 08:56:53;;;;;;;26.73;25.13;;;21.80;54.60;;;;;;5145223;27;20461;-73
2022/05/15 08:59:27;;;;;;;27.30;25.40;;;21.90;54.30;;;;;;5129242;27;20952;-72
2022/05/15 09:01:56;;;;;;;27.17;25.13;;;22.00;54.20;;;;;;5134248;27;20853;-73
2022/05/15 09:04:23;;;;;;;28.87;27.20;;;22.10;54.00;;;;;;5137950;27;20471;-71
2022/05/15 09:07:07;;;;;;;27.23;25.60;;;22.10;54.00;;;;;;5130856;27;20536;-71
2022/05/15 09:09:45;;;;;;;26.57;25.07;;;22.30;53.60;;;;;;5134152;27;20615;-71
2022/05/15 09:12:17;;;;;;;27.00;25.30;;;22.50;53.20;;;;;;5144020;27;20445;-71
2022/05/15 09:14:59;;;;;;;27.30;25.70;;;22.70;53.10;;;;;;5137575;27;20562;-71
2022/05/15 09:17:33;;;;;;;26.63;25.17;;;22.70;52.70;;;;;;5143569;27;20468;-71
2022/05/15 09:20:05;;;;;;;27.53;25.40;;;22.70;52.90;;;;;;5127901;27;20859;-71
2022/05/15 09:22:36;;;;;;;27.87;26.10;;;22.90;52.60;;;;;;5135977;27;20574;-72
2022/05/15 09:25:08;;;;;;;28.87;26.97;;;23.10;52.50;;;;;;5143362;27;20984;-72
2022/05/15 09:27:36;;;;;;;27.90;26.20;;;23.20;51.70;;;;;;5145746;27;20979;-71
2022/05/15 09:30:11;;;;;;;29.63;27.80;;;23.30;51.90;;;;;;5143893;27;20447;-72
2022/05/15 09:32:40;;;;;;;28.90;27.20;;;23.30;51.20;;;;;;5140955;27;20451;-72
2022/05/15 09:35:26;;;;;;;28.10;26.30;;;23.30;50.90;;;;;;5141897;27;21368;-72
2022/05/15 09:43:30;;;;;;;27.17;25.60;;;23.50;50.80;;;;;;5137243;27;20982;-72
2022/05/15 09:43:31;;;;;;;28.57;26.57;;;23.70;50.40;;;;;;5143129;27;20509;-74
2022/05/15 09:46:00;;;;;;;28.03;26.33;;;23.80;50.10;;;;;;5142713;27;20971;-73
2022/05/15 09:48:36;;;;;;;28.20;26.70;;;23.90;50.40;;;;;;5136885;27;20462;-72
2022/05/15 09:51:08;;;;;;;26.53;24.93;;;24.10;50.30;;;;;;5134721;27;20464;-73
2022/05/15 09:53:41;;;;;;;26.20;24.50;;;24.20;49.90;;;;;;5138316;27;20549;-72
2022/05/15 09:56:11;;;;;;;27.13;25.63;;;24.40;49.50;;;;;;5144600;27;20434;-74
2022/05/15 09:58:44;;;;;;;28.13;25.80;;;24.60;49.20;;;;;;5130931;27;20446;-72
2022/05/15 10:01:23;;;;;;;27.20;25.60;;;24.80;48.20;;;;;;5141665;27;20455;-72
2022/05/15 10:03:52;;;;;;;27.20;25.40;;;25.00;47.80;;;;;;5141693;27;20451;-72
2022/05/15 10:06:22;;;;;;;27.80;26.20;;;25.00;47.40;;;;;;5145540;27;20484;-72
2022/05/15 10:09:08;;;;;;;27.27;25.77;;;24.80;47.40;;;;;;5141480;27;20462;-72
2022/05/15 10:11:37;;;;;;;28.63;27.03;;;25.00;47.20;;;;;;5145556;27;20467;-72
2022/05/15 10:14:08;;;;;;;28.00;25.97;;;25.00;47.20;;;;;;5146883;27;20485;-72
2022/05/15 10:16:42;;;;;;;27.73;26.00;;;25.10;48.10;;;;;;5140122;27;20448;-72
2022/05/15 10:19:13;;;;;;;27.80;26.10;;;25.20;47.90;;;;;;5138551;27;20980;-74
2022/05/15 10:21:42;;;;;;;28.00;26.40;;;25.30;47.10;;;;;;5144174;27;20452;-72
2022/05/15 10:24:14;;;;;;;29.07;27.37;;;25.40;47.50;;;;;;5130032;27;20482;-72
2022/05/15 10:26:51;;;;;;;29.20;27.37;;;25.50;47.40;;;;;;5138070;27;20749;-72
2022/05/15 10:29:36;;;;;;;27.90;26.30;;;25.60;47.10;;;;;;5144501;27;20444;-72
2022/05/15 10:32:11;;;;;;;29.67;27.87;;;25.60;47.30;;;;;;5142947;27;20465;-72
2022/05/15 10:34:38;;;;;;;27.43;25.90;;;25.50;47.10;;;;;;5134092;27;20473;-73
2022/05/15 10:37:23;;;;;;;27.80;26.00;;;25.50;47.30;;;;;;5138101;27;20486;-76
2022/05/15 10:40:07;;;;;;;28.30;26.50;;;25.60;47.20;;;;;;5135523;27;20449;-76
2022/05/15 10:42:44;;;;;;;28.20;26.37;;;25.70;46.60;;;;;;5139103;27;20453;-76
2022/05/15 10:45:21;;;;;;;29.80;27.60;;;25.80;46.20;;;;;;5144775;27;20478;-76
2022/05/15 10:48:03;;;;;;;29.23;27.30;;;25.60;46.30;;;;;;5147138;27;20532;-76
2022/05/15 10:50:39;;;;;;;27.57;25.87;;;25.60;45.80;;;;;;5138680;27;20922;-76
2022/05/15 10:59:22;;;;;;;30.10;28.43;;;25.70;46.20;;;;;;5140489;27;20995;-76
2022/05/15 11:02:04;;;;;;;27.87;26.20;;;25.80;45.80;;;;;;5148296;27;20801;-76
2022/05/15 11:04:44;;;;;;;27.30;25.60;;;26.00;44.80;;;;;;5143807;27;20485;-76
2022/05/15 11:07:21;;;;;;;28.10;26.17;;;25.70;43.80;;;;;;5143290;27;20909;-76
2022/05/15 11:10:00;;;;;;;26.73;25.20;;;25.70;44.30;;;;;;5137230;27;20476;-76
2022/05/15 11:12:33;;;;;;;29.60;27.90;;;25.80;43.00;;;;;;5139922;27;20505;-76
2022/05/15 11:15:14;;;;;;;27.33;25.80;;;25.80;43.70;;;;;;5140969;27;20900;-76
2022/05/15 11:17:49;;;;;;;27.80;26.00;;;25.50;44.40;;;;;;5141373;27;20855;-76
2022/05/15 11:20:24;;;;;;;30.17;28.47;;;25.70;44.20;;;;;;5143057;27;20562;-76
2022/05/15 11:22:55;;;;;;;29.60;27.80;;;25.60;44.40;;;;;;5134576;27;20880;-75
2022/05/15 11:25:27;;;;;;;32.50;30.60;;;25.60;44.80;;;;;;5138797;27;20765;-75
2022/05/15 11:27:56;;;;;;;28.90;27.00;;;25.70;44.30;;;;;;5142690;27;21002;-75
2022/05/15 11:30:26;;;;;;;27.80;26.10;;;25.80;43.60;;;;;;5140225;27;20460;-75
2022/05/15 11:33:04;;;;;;;28.63;26.93;;;25.80;43.50;;;;;;5138702;27;20943;-73
2022/05/15 11:35:34;;;;;;;28.80;27.00;;;25.80;43.40;;;;;;5138205;27;21040;-73
2022/05/15 11:38:19;;;;;;;28.50;26.60;;;25.70;43.60;;;;;;5143138;27;20495;-73
2022/05/15 11:40:48;;;;;;;28.37;26.67;;;25.70;43.40;;;;;;5137029;27;20844;-72
2022/05/15 11:44:03;;;;;;;27.90;26.20;;;25.80;43.40;;;;;;5131028;27;20459;-73
2022/05/15 11:47:02;;;;;;;28.03;26.17;;;25.80;44.10;;;;;;5141162;27;20480;-73
2022/05/15 11:49:39;;;;;;;28.97;27.03;;;25.80;43.90;;;;;;5143796;27;20463;-73
2022/05/15 11:52:21;;;;;;;27.20;25.60;;;26.00;43.90;;;;;;5143827;27;20454;-74
2022/05/15 11:54:49;;;;;;;27.40;25.60;;;26.10;43.40;;;;;;5143683;27;20482;-74
2022/05/15 11:57:34;;;;;;;29.57;27.57;;;26.30;42.80;;;;;;5140121;27;20751;-74
2022/05/15 12:00:06;;;;;;;27.33;25.63;;;26.40;42.30;;;;;;5138466;27;21767;-73
2022/05/15 12:02:50;;;;;;;27.67;25.97;;;26.40;42.30;;;;;;5145273;27;20823;-72
2022/05/15 12:05:31;;;;;;;29.27;27.47;;;26.60;42.90;;;;;;5139706;27;20519;-76
2022/05/15 12:08:01;;;;;;;27.63;25.93;;;26.90;42.30;;;;;;5139454;27;20453;-72
2022/05/15 12:10:54;;;;;;;27.63;25.83;;;27.00;41.60;;;;;;5145031;27;20456;-74
2022/05/15 12:13:36;;;;;;;27.93;26.13;;;26.80;41.00;;;;;;5144339;27;20971;-73
2022/05/15 12:16:25;;;;;;;30.47;28.57;;;26.70;41.40;;;;;;5137546;27;20454;-72
2022/05/15 12:19:00;;;;;;;29.43;27.63;;;26.90;42.20;;;;;;5133660;27;20468;-72
2022/05/15 12:21:38;;;;;;;27.60;26.00;;;27.10;43.40;;;;;;5143357;27;20488;-72
2022/05/15 12:27:15;;;;;;;28.07;26.37;;;27.60;41.50;;;;;;5136499;27;20494;-76
2022/05/15 12:29:53;;;;;;;30.67;28.90;;;27.80;41.80;;;;;;5132238;27;20461;-73
2022/05/15 12:32:28;;;;;;;28.70;26.90;;;28.00;40.60;;;;;;5140505;27;20483;-76
2022/05/15 12:34:55;;;;;;;28.47;26.70;;;28.10;40.50;;;;;;5134683;27;21175;-75
2022/05/15 12:37:28;;;;;;;26.97;24.97;;;28.00;41.00;;;;;;5139880;27;20960;-74
2022/05/15 12:39:57;;;;;;;26.67;25.10;;;28.10;40.90;;;;;;5135886;27;20578;-78
2022/05/15 12:42:33;;;;;;;27.60;25.80;;;28.20;41.70;;;;;;5149922;27;20447;-79
2022/05/15 12:45:04;;;;;;;28.50;26.80;;;28.30;38.40;;;;;;5144509;27;20489;-78
2022/05/15 12:47:33;;;;;;;29.17;27.13;;;28.40;37.70;;;;;;5145730;27;20486;-78
2022/05/15 12:50:02;;;;;;;27.60;25.90;;;28.20;37.50;;;;;;5143000;27;20824;-81
2022/05/15 12:52:33;;;;;;;27.80;26.00;;;27.90;39.10;;;;;;5155335;27;20538;-78
2022/05/15 12:55:02;;;;;;;27.30;25.60;;;27.80;39.50;;;;;;5142716;27;20478;-77
2022/05/15 12:57:30;;;;;;;27.53;25.73;;;27.90;39.20;;;;;;5134401;27;20538;-75
2022/05/15 12:59:57;;;;;;;28.00;25.80;;;27.80;39.30;;;;;;5142096;27;20451;-79
2022/05/15 13:02:34;;;;;;;27.27;25.67;;;27.80;39.10;;;;;;5143344;27;20456;-78
2022/05/15 13:05:05;;;;;;;27.30;25.40;;;27.80;39.80;;;;;;5142372;27;20475;-81
2022/05/15 13:07:41;;;;;;;26.27;24.77;;;27.70;40.70;;;;;;5148066;27;20577;-79
2022/05/15 13:10:11;;;;;;;29.20;27.60;;;27.80;40.70;;;;;;5139725;27;20505;-77